Godthab, Greenland
Current Conditions -  °F | °C
As of 8:50 PM on Thursday 27 Nov 2014 (Local Time) from BGGH Reporting Station
Broken Clouds Broken Clouds  
Wind Chill:   Ceiling: 21000
Heat Index: 21°   Visibility: 6mi
Dew Point: 16°   Wind: 14mph
Humidity: 80%   Direction: 170°S
Pressure: 29.53"   Gusts: NA
Location:  64.18°N, 51.72°W
Report Text: BGGH 272250Z 17012KT 9999 SCT010 BKN210 M06/M09 Q1000
Loading
Personal Weather Stations






























Interactive Weather Map New forecast layout! Learn more

10-Day Weather Forecast

Advertisements
Track Severe Weather on mobile